createdAt,value
2022-08-11T00:02:03.159Z,11.50
2022-08-11T00:04:40.000Z,11.50
2022-08-11T00:07:12.435Z,11.50
2022-08-11T00:09:42.789Z,11.60
2022-08-11T00:12:18.354Z,11.40
2022-08-11T00:14:46.715Z,11.70
2022-08-11T00:17:19.222Z,11.40
2022-08-11T00:20:12.826Z,11.60
2022-08-11T00:22:45.439Z,11.40
2022-08-11T00:25:19.961Z,11.40
2022-08-11T00:27:48.942Z,11.40
2022-08-11T00:30:17.091Z,11.70
2022-08-11T00:32:53.589Z,11.50
2022-08-11T00:35:51.650Z,11.40
2022-08-11T00:38:25.307Z,11.40
2022-08-11T00:41:31.745Z,11.40
2022-08-11T00:44:17.882Z,11.30
2022-08-11T00:47:15.206Z,11.20
2022-08-11T00:50:10.353Z,11.10
2022-08-11T00:52:47.785Z,11.20
2022-08-11T00:55:42.495Z,11.20
2022-08-11T00:59:00.088Z,11.00
2022-08-11T01:01:54.654Z,11.20
2022-08-11T01:04:57.183Z,11.20
2022-08-11T01:07:59.080Z,11.20
2022-08-11T01:10:45.273Z,11.20
2022-08-11T01:13:35.700Z,11.10
2022-08-11T01:16:34.409Z,11.30
2022-08-11T01:20:45.904Z,11.20
2022-08-11T01:22:50.239Z,11.20
2022-08-11T01:25:56.749Z,11.20
2022-08-11T01:29:04.383Z,11.20
2022-08-11T01:32:05.392Z,11.00
2022-08-11T01:35:07.177Z,10.80
2022-08-11T01:37:59.483Z,10.90
2022-08-11T01:40:52.333Z,10.80
2022-08-11T01:44:03.741Z,10.70
2022-08-11T01:46:58.823Z,10.70
2022-08-11T01:50:07.218Z,10.60
2022-08-11T01:52:49.306Z,10.60
2022-08-11T01:55:27.040Z,10.50
2022-08-11T01:58:17.072Z,10.50
2022-08-11T02:01:14.212Z,10.40
2022-08-11T02:04:07.097Z,10.40
2022-08-11T02:06:56.340Z,10.40
2022-08-11T02:09:49.794Z,10.30
2022-08-11T02:12:52.504Z,10.40
2022-08-11T02:15:44.035Z,10.50
2022-08-11T02:18:44.529Z,10.40
2022-08-11T02:21:41.208Z,10.30
2022-08-11T02:24:21.724Z,10.40
2022-08-11T02:27:01.224Z,10.60
2022-08-11T02:30:05.500Z,9.80
2022-08-11T02:33:03.386Z,10.50
2022-08-11T02:35:37.130Z,10.30
2022-08-11T02:38:37.318Z,10.20
2022-08-11T02:41:40.347Z,10.20
2022-08-11T02:44:17.129Z,10.20
2022-08-11T02:47:18.310Z,10.20
2022-08-11T02:50:07.237Z,10.10
2022-08-11T02:53:10.137Z,10.30
2022-08-11T02:55:57.748Z,10.20
2022-08-11T02:59:08.122Z,10.10
2022-08-11T03:02:25.133Z,9.40
2022-08-11T03:05:13.166Z,10.10
2022-08-11T03:08:15.068Z,10.10
2022-08-11T03:11:16.942Z,10.10
2022-08-11T03:14:25.566Z,10.20
2022-08-11T03:17:14.444Z,10.30
2022-08-11T03:19:47.633Z,10.40
2022-08-11T03:22:29.456Z,10.40
2022-08-11T03:25:17.816Z,10.70
2022-08-11T03:28:24.769Z,10.60
2022-08-11T03:31:25.265Z,10.70
2022-08-11T03:34:13.024Z,10.90
2022-08-11T03:37:17.621Z,10.30
2022-08-11T03:40:05.100Z,11.00
2022-08-11T03:42:50.555Z,11.10
2022-08-11T03:45:48.023Z,11.30
2022-08-11T03:48:28.811Z,11.20
2022-08-11T03:51:10.427Z,11.30
2022-08-11T03:53:59.648Z,11.40
2022-08-11T03:56:57.586Z,11.50
2022-08-11T03:59:56.749Z,11.50
2022-08-11T04:02:47.657Z,11.70
2022-08-11T04:06:15.353Z,11.80
2022-08-11T04:09:00.931Z,11.90
2022-08-11T04:11:51.450Z,12.10
2022-08-11T04:15:06.781Z,12.20
2022-08-11T04:18:06.383Z,12.40
2022-08-11T04:21:01.729Z,12.60
2022-08-11T04:24:36.636Z,12.60
2022-08-11T04:27:14.441Z,12.80
2022-08-11T04:30:17.645Z,13.10
2022-08-11T04:44:31.993Z,16.70
2022-08-11T04:50:26.284Z,17.40
2022-08-11T04:53:21.722Z,17.20
2022-08-11T04:56:35.074Z,16.60
2022-08-11T05:19:47.820Z,16.10
2022-08-11T05:50:00.918Z,18.40
2022-08-11T05:58:16.754Z,19.40
2022-08-11T06:00:46.909Z,19.80
2022-08-11T06:03:28.238Z,20.10
2022-08-11T06:06:00.213Z,20.20
2022-08-11T06:08:36.425Z,21.00
2022-08-11T06:11:09.156Z,22.80
2022-08-11T06:13:47.246Z,25.00
2022-08-11T06:16:20.739Z,27.00
2022-08-11T06:18:49.225Z,28.10
2022-08-11T06:21:17.341Z,28.60
2022-08-11T06:23:45.739Z,29.10
2022-08-11T06:26:14.522Z,30.40
2022-08-11T06:28:47.018Z,31.40
2022-08-11T06:31:20.373Z,32.60
2022-08-11T06:34:08.165Z,32.60
2022-08-11T06:36:48.784Z,32.40
2022-08-11T06:39:33.985Z,32.80
2022-08-11T06:42:14.498Z,33.20
2022-08-11T06:44:48.619Z,33.90
2022-08-11T06:47:18.181Z,33.70
2022-08-11T06:50:05.904Z,34.30
2022-08-11T06:52:40.391Z,34.50
2022-08-11T06:55:55.804Z,34.00
2022-08-11T06:58:50.898Z,34.10
2022-08-11T07:01:49.395Z,34.90
2022-08-11T07:04:49.274Z,33.70
2022-08-11T07:08:34.140Z,32.90
2022-08-11T07:11:39.899Z,33.00
2022-08-11T07:14:27.217Z,34.10
2022-08-11T07:16:56.031Z,34.20
2022-08-11T07:19:46.437Z,34.80
2022-08-11T07:22:33.210Z,35.00
2022-08-11T07:25:24.514Z,34.70
2022-08-11T07:28:29.501Z,34.30
2022-08-11T07:31:03.447Z,34.20
2022-08-11T07:34:07.299Z,34.10
2022-08-11T07:36:30.903Z,34.40
2022-08-11T07:38:58.971Z,34.70
2022-08-11T07:41:28.811Z,34.90
2022-08-11T07:44:09.087Z,35.20
2022-08-11T07:47:03.371Z,34.70
2022-08-11T07:49:52.861Z,33.70
2022-08-11T07:52:27.673Z,34.30
2022-08-11T07:54:57.305Z,33.60
2022-08-11T07:58:14.524Z,33.40
2022-08-11T08:00:56.256Z,34.30
2022-08-11T08:03:54.614Z,34.20
2022-08-11T08:06:41.498Z,35.20
2022-08-11T08:09:27.807Z,35.20
2022-08-11T08:12:15.489Z,35.40
2022-08-11T08:15:01.554Z,36.10
2022-08-11T08:18:09.137Z,36.60
2022-08-11T08:20:45.730Z,37.20
2022-08-11T08:23:13.324Z,36.60
2022-08-11T08:25:43.565Z,36.60
2022-08-11T08:28:16.552Z,35.90
2022-08-11T08:30:47.951Z,34.90
2022-08-11T08:33:23.791Z,34.90
2022-08-11T08:36:12.658Z,34.90
2022-08-11T08:38:54.327Z,35.80
2022-08-11T08:41:29.985Z,35.90
2022-08-11T08:44:37.213Z,36.80
2022-08-11T08:47:01.268Z,36.40
2022-08-11T08:49:40.147Z,35.10
2022-08-11T08:52:21.125Z,34.70
2022-08-11T08:54:57.141Z,34.50
2022-08-11T08:57:28.112Z,35.10
2022-08-11T08:59:56.528Z,35.00
2022-08-11T09:02:34.623Z,35.20
2022-08-11T09:05:04.714Z,34.80
2022-08-11T09:07:39.008Z,34.40
2022-08-11T09:10:09.935Z,35.00
2022-08-11T09:12:40.930Z,34.50
2022-08-11T09:15:10.610Z,34.90
2022-08-11T09:17:45.132Z,35.30
2022-08-11T09:20:20.457Z,35.60
2022-08-11T09:26:16.599Z,36.50
2022-08-11T09:28:45.152Z,36.50
2022-08-11T09:31:13.671Z,36.50
2022-08-11T09:33:43.228Z,36.20
2022-08-11T09:36:30.679Z,36.50
2022-08-11T09:39:17.149Z,36.80
2022-08-11T09:42:01.217Z,37.50
2022-08-11T09:44:49.374Z,36.90
2022-08-11T09:47:23.734Z,37.40
2022-08-11T09:49:55.084Z,38.10
2022-08-11T09:52:24.196Z,36.30
2022-08-11T09:54:52.975Z,35.60
2022-08-11T09:57:40.794Z,35.40
2022-08-11T10:00:12.720Z,35.40
2022-08-11T10:02:46.959Z,36.10
2022-08-11T10:05:36.959Z,36.20
2022-08-11T10:08:07.503Z,36.20
2022-08-11T10:10:39.146Z,35.50
2022-08-11T10:14:04.862Z,35.20
2022-08-11T10:16:14.739Z,35.10
2022-08-11T10:18:53.267Z,35.80
2022-08-11T10:21:28.538Z,35.60
2022-08-11T10:24:17.533Z,36.30
2022-08-11T10:26:55.067Z,35.70
2022-08-11T10:29:49.979Z,35.30
2022-08-11T10:32:58.639Z,33.80
2022-08-11T10:35:29.003Z,34.60
2022-08-11T10:38:08.748Z,35.20
2022-08-11T10:40:41.157Z,35.30
2022-08-11T10:43:18.804Z,36.00
2022-08-11T10:46:40.410Z,36.60
2022-08-11T10:49:10.186Z,37.10
2022-08-11T10:51:58.586Z,36.60
2022-08-11T10:54:45.642Z,37.10
2022-08-11T10:57:34.274Z,37.10
2022-08-11T11:00:01.894Z,37.00
2022-08-11T11:02:29.895Z,38.50
2022-08-11T11:04:59.794Z,37.70
2022-08-11T11:07:48.002Z,37.60
2022-08-11T11:10:16.204Z,36.40
2022-08-11T11:13:05.292Z,36.20
2022-08-11T11:15:54.388Z,35.40
2022-08-11T11:18:23.412Z,34.60
2022-08-11T11:21:08.716Z,33.50
2022-08-11T11:23:59.194Z,33.70
2022-08-11T11:26:56.013Z,33.30
2022-08-11T11:29:32.072Z,32.30
2022-08-11T11:32:46.492Z,33.30
2022-08-11T11:35:16.406Z,34.90
2022-08-11T11:38:03.560Z,35.80
2022-08-11T11:40:33.211Z,36.00
2022-08-11T11:43:01.834Z,35.60
2022-08-11T11:45:29.077Z,35.60
2022-08-11T11:47:59.757Z,33.90
2022-08-11T11:50:31.624Z,32.20
2022-08-11T11:53:02.365Z,30.60
2022-08-11T11:55:30.716Z,30.40
2022-08-11T11:58:19.449Z,32.00
2022-08-11T12:01:06.368Z,33.50
2022-08-11T12:03:35.769Z,34.30
2022-08-11T12:06:04.227Z,34.20
2022-08-11T12:08:32.351Z,34.70
2022-08-11T12:11:26.765Z,33.90
2022-08-11T12:13:56.254Z,33.90
2022-08-11T12:16:34.668Z,34.20
2022-08-11T12:19:24.687Z,33.60
2022-08-11T12:22:11.401Z,34.10
2022-08-11T12:24:58.106Z,34.90
2022-08-11T12:27:26.959Z,34.70
2022-08-11T12:30:06.051Z,34.70
2022-08-11T12:32:35.380Z,33.70
2022-08-11T12:35:03.085Z,32.10
2022-08-11T12:37:40.960Z,32.80
2022-08-11T12:40:43.408Z,33.60
2022-08-11T12:43:41.594Z,34.10
2022-08-11T12:46:14.546Z,33.60
2022-08-11T12:49:05.536Z,33.50
2022-08-11T12:52:08.549Z,32.80
2022-08-11T12:54:41.706Z,32.20
2022-08-11T12:57:37.958Z,30.80
2022-08-11T13:00:29.087Z,29.70
2022-08-11T13:03:16.114Z,29.10
2022-08-11T13:05:45.792Z,28.70
2022-08-11T13:08:17.189Z,28.30
2022-08-11T13:11:04.508Z,28.20
2022-08-11T13:13:55.084Z,28.20
2022-08-11T13:16:26.623Z,28.30
2022-08-11T13:18:54.732Z,28.40
2022-08-11T13:21:23.128Z,28.60
2022-08-11T13:24:01.818Z,28.60
2022-08-11T13:26:49.366Z,28.50
2022-08-11T13:29:23.369Z,28.30
2022-08-11T13:31:52.441Z,28.30
2022-08-11T13:34:21.230Z,28.40
2022-08-11T13:36:53.733Z,28.40
2022-08-11T13:39:24.262Z,28.40
2022-08-11T13:41:55.557Z,28.10
2022-08-11T13:44:26.010Z,27.70
2022-08-11T13:46:57.949Z,27.80
2022-08-11T13:49:28.631Z,27.90
2022-08-11T13:51:57.736Z,27.90
2022-08-11T13:54:28.221Z,27.80
2022-08-11T13:56:58.022Z,27.80
2022-08-11T13:59:29.979Z,27.80
2022-08-11T14:02:22.153Z,27.80
2022-08-11T14:04:54.609Z,27.70
2022-08-11T14:07:24.313Z,27.60
2022-08-11T14:09:58.116Z,27.80
2022-08-11T14:12:48.000Z,27.90
2022-08-11T14:15:25.261Z,27.80
2022-08-11T14:17:57.369Z,27.70
2022-08-11T14:20:39.501Z,27.80
2022-08-11T14:23:12.146Z,27.80
2022-08-11T14:26:02.425Z,27.70
2022-08-11T14:28:40.279Z,27.70
2022-08-11T14:31:12.560Z,27.70
2022-08-11T14:34:00.347Z,27.60
2022-08-11T14:36:39.056Z,27.40
2022-08-11T14:39:17.215Z,27.30
2022-08-11T14:42:12.596Z,27.20
2022-08-11T14:45:04.566Z,27.20
2022-08-11T14:47:34.598Z,27.20
2022-08-11T14:50:11.363Z,27.20
2022-08-11T14:53:10.572Z,27.00
2022-08-11T14:56:03.084Z,27.20
2022-08-11T14:58:33.986Z,27.30
2022-08-11T15:01:03.122Z,27.20
2022-08-11T15:03:34.011Z,27.20
2022-08-11T15:06:02.672Z,27.10
2022-08-11T15:08:54.645Z,27.00
2022-08-11T15:11:51.362Z,26.60
2022-08-11T15:14:39.197Z,26.90
2022-08-11T15:17:09.858Z,26.90
2022-08-11T15:20:00.461Z,26.80
2022-08-11T15:22:46.223Z,26.70
2022-08-11T15:25:16.361Z,26.60
2022-08-11T15:28:05.960Z,26.70
2022-08-11T15:30:55.570Z,26.60
2022-08-11T15:33:44.675Z,26.60
2022-08-11T15:36:33.446Z,26.60
2022-08-11T15:39:20.710Z,26.70
2022-08-11T15:42:31.023Z,26.60
2022-08-11T15:45:21.553Z,26.60
2022-08-11T15:48:05.108Z,26.60
2022-08-11T15:50:38.969Z,26.50
2022-08-11T15:53:23.737Z,26.50
2022-08-11T15:55:51.883Z,26.50
2022-08-11T15:58:41.635Z,26.40
2022-08-11T16:01:29.001Z,26.40
2022-08-11T16:04:13.943Z,26.20
2022-08-11T16:06:47.870Z,26.10
2022-08-11T16:09:51.686Z,26.00
2022-08-11T16:12:23.881Z,25.90
2022-08-11T16:15:20.549Z,25.80
2022-08-11T16:17:52.291Z,25.70
2022-08-11T16:20:25.809Z,25.70
2022-08-11T16:23:02.584Z,25.60
2022-08-11T16:27:02.535Z,25.50
2022-08-11T16:28:22.215Z,25.50
2022-08-11T16:30:51.566Z,25.50
2022-08-11T16:33:48.237Z,25.50
2022-08-11T16:36:30.906Z,25.40
2022-08-11T16:38:59.632Z,25.60
2022-08-11T16:41:59.756Z,25.50
2022-08-11T16:44:46.938Z,25.50
2022-08-11T16:47:17.943Z,25.40
2022-08-11T16:50:08.283Z,25.50
2022-08-11T16:52:38.864Z,25.40
2022-08-11T16:55:06.928Z,25.40
2022-08-11T16:57:56.787Z,25.40
2022-08-11T17:00:30.505Z,25.30
2022-08-11T17:03:19.457Z,25.20
2022-08-11T17:06:10.754Z,25.10
2022-08-11T17:09:09.747Z,25.10
2022-08-11T17:12:03.544Z,24.90
2022-08-11T17:14:43.782Z,24.80
2022-08-11T17:17:27.151Z,24.60
2022-08-11T17:20:38.553Z,24.50
2022-08-11T17:23:06.801Z,24.40
2022-08-11T17:25:59.608Z,24.20
2022-08-11T17:28:33.799Z,24.00
2022-08-11T17:31:22.619Z,23.90
2022-08-11T17:34:09.991Z,23.70
2022-08-11T17:36:40.447Z,23.60
2022-08-11T17:39:13.891Z,23.40
2022-08-11T17:42:01.039Z,23.20
2022-08-11T17:44:47.408Z,23.00
2022-08-11T17:47:34.677Z,22.80
2022-08-11T17:50:10.622Z,22.70
2022-08-11T17:53:06.396Z,22.50
2022-08-11T17:55:55.584Z,22.40
2022-08-11T17:58:44.374Z,22.20
2022-08-11T18:01:12.967Z,22.00
2022-08-11T18:03:54.562Z,21.80
2022-08-11T18:06:34.028Z,21.70
2022-08-11T18:09:26.415Z,21.50
2022-08-11T18:12:14.556Z,21.30
2022-08-11T18:15:05.987Z,21.10
2022-08-11T18:17:52.273Z,20.90
2022-08-11T18:20:39.011Z,20.80
2022-08-11T18:23:41.703Z,20.70
2022-08-11T18:26:35.139Z,20.60
2022-08-11T18:29:22.828Z,20.50
2022-08-11T18:32:12.171Z,20.20
2022-08-11T18:35:09.000Z,20.20
2022-08-11T18:37:56.332Z,20.10
2022-08-11T18:40:46.594Z,19.90
2022-08-11T18:43:37.007Z,19.80
2022-08-11T18:46:27.306Z,19.70
2022-08-11T18:49:17.949Z,19.50
2022-08-11T18:52:07.325Z,19.50
2022-08-11T18:54:56.522Z,19.40
2022-08-11T18:57:54.130Z,19.20
2022-08-11T19:00:45.451Z,19.10
2022-08-11T19:03:43.413Z,19.10
2022-08-11T19:06:40.889Z,19.00
2022-08-11T19:09:31.659Z,18.90
2022-08-11T19:12:19.150Z,18.70
2022-08-11T19:15:06.558Z,18.60
2022-08-11T19:17:54.919Z,18.60
2022-08-11T19:20:44.417Z,18.60
2022-08-11T19:23:34.155Z,18.60
2022-08-11T19:26:22.709Z,18.30
2022-08-11T19:30:07.161Z,18.20
2022-08-11T19:32:20.606Z,18.20
2022-08-11T19:35:06.937Z,18.20
2022-08-11T19:37:54.453Z,18.30
2022-08-11T19:40:41.566Z,18.20
2022-08-11T19:43:29.319Z,18.10
2022-08-11T19:46:21.159Z,17.90
2022-08-11T19:49:12.631Z,17.80
2022-08-11T19:51:59.095Z,17.90
2022-08-11T19:54:52.047Z,17.90
2022-08-11T19:57:40.389Z,17.70
2022-08-11T20:00:36.423Z,17.60
2022-08-11T20:03:27.439Z,17.50
2022-08-11T20:06:19.489Z,17.40
2022-08-11T20:09:07.678Z,17.30
2022-08-11T20:11:57.960Z,17.30
2022-08-11T20:14:45.386Z,17.10
2022-08-11T20:17:35.080Z,17.10
2022-08-11T20:20:30.079Z,17.00
2022-08-11T20:23:20.624Z,17.00
2022-08-11T20:26:29.658Z,17.10
2022-08-11T20:29:14.299Z,17.00
2022-08-11T20:32:06.343Z,17.00
2022-08-11T20:34:56.997Z,17.00
2022-08-11T20:37:50.193Z,16.90
2022-08-11T20:40:39.463Z,16.90
2022-08-11T20:44:07.861Z,16.90
2022-08-11T20:46:39.371Z,16.70
2022-08-11T20:49:40.892Z,16.70
2022-08-11T20:52:36.176Z,16.70
2022-08-11T20:58:49.124Z,16.60
2022-08-11T21:01:41.289Z,16.50
2022-08-11T21:04:27.571Z,16.40
2022-08-11T21:07:15.189Z,16.30
2022-08-11T21:10:24.024Z,16.20
2022-08-11T21:13:25.946Z,16.20
2022-08-11T21:16:25.359Z,16.10
2022-08-11T21:19:18.173Z,16.10
2022-08-11T21:22:05.686Z,16.00
2022-08-11T21:24:53.316Z,15.90
2022-08-11T21:27:40.502Z,15.90
2022-08-11T21:30:26.646Z,15.80
2022-08-11T21:33:13.940Z,15.80
2022-08-11T21:36:01.454Z,15.70
2022-08-11T21:38:48.052Z,15.60
2022-08-11T21:41:35.538Z,15.50
2022-08-11T21:44:25.065Z,15.60
2022-08-11T21:47:13.101Z,15.50
2022-08-11T21:50:00.769Z,15.40
2022-08-11T21:52:47.311Z,15.30
2022-08-11T21:55:33.823Z,15.30
2022-08-11T21:58:20.163Z,15.30
2022-08-11T22:01:06.075Z,15.20
2022-08-11T22:03:51.778Z,15.10
2022-08-11T22:06:38.795Z,15.10
2022-08-11T22:09:24.217Z,14.90
2022-08-11T22:12:29.569Z,14.90
2022-08-11T22:15:16.706Z,14.90
2022-08-11T22:18:02.770Z,14.80
2022-08-11T22:20:50.810Z,14.80
2022-08-11T22:23:38.054Z,14.70
2022-08-11T22:26:25.182Z,14.80
2022-08-11T22:29:12.077Z,14.80
2022-08-11T22:31:59.140Z,14.70
2022-08-11T22:34:52.966Z,14.60
2022-08-11T22:37:41.104Z,14.60
2022-08-11T22:40:28.438Z,14.50
2022-08-11T22:43:14.535Z,14.50
2022-08-11T22:46:00.294Z,14.40
2022-08-11T22:48:49.224Z,14.40
2022-08-11T22:51:38.735Z,14.40
2022-08-11T22:54:25.778Z,14.30
2022-08-11T22:57:12.070Z,14.40
2022-08-11T22:59:58.894Z,14.30
2022-08-11T23:02:47.479Z,14.20
2022-08-11T23:05:34.817Z,14.20
2022-08-11T23:08:21.306Z,14.20
2022-08-11T23:11:08.204Z,14.10
2022-08-11T23:13:53.840Z,14.10
2022-08-11T23:16:40.211Z,14.00
2022-08-11T23:20:01.639Z,13.90
2022-08-11T23:22:36.887Z,13.90
2022-08-11T23:25:35.526Z,13.80
2022-08-11T23:28:21.881Z,13.80
2022-08-11T23:31:12.301Z,13.80
2022-08-11T23:34:00.640Z,13.80
2022-08-11T23:36:47.572Z,13.90
2022-08-11T23:39:34.088Z,13.90
2022-08-11T23:42:21.187Z,14.00
2022-08-11T23:45:09.471Z,13.90
2022-08-11T23:47:56.979Z,13.90
2022-08-11T23:50:43.650Z,13.90
2022-08-11T23:53:29.749Z,13.80
2022-08-11T23:56:15.064Z,13.80
2022-08-11T23:59:00.910Z,13.80
